Date,TemperatureHighF,TemperatureAvgF,TemperatureLowF,DewpointHighF,DewpointAvgF,DewpointLowF,HumidityHigh,HumidityAvg,HumidityLow,PressureMaxIn,PressureMinIn,WindSpeedMaxMPH,WindSpeedAvgMPH,GustSpeedMaxMPH,PrecipitationSumIn
2013-1-1,30.1,23.4,15.0,25.8,16.4,10.7,84,74,59,30.17,30.02,11,2,13,0.00
2013-1-2,26.0,19.9,10.4,19.8,15.3,7.1,92,82,76,30.22,30.09,8,1,12,0.00
2013-1-3,30.7,23.7,16.4,26.4,17.9,9.0,85,78,71,30.19,30.07,11,5,15,0.00
2013-1-4,31.4,28.0,23.4,25.5,21.3,18.4,84,76,65,30.19,30.03,17,8,25,0.00
2013-1-5,33.5,26.7,16.5,30.4,22.3,13.6,89,83,73,30.31,30.04,9,2,14,0.01
2013-1-6,36.8,34.7,33.4,32.7,30.6,28.2,89,85,81,30.26,29.91,11,5,20,0.06
2013-1-7,36.4,32.9,29.3,28.2,26.0,24.1,82,76,69,30.39,30.16,16,5,25,0.02
2013-1-8,38.0,31.0,26.4,29.4,25.7,22.3,88,81,70,30.25,30.17,10,2,16,0.03
2013-1-9,47.9,39.0,26.4,35.7,29.3,23.3,89,70,44,30.44,30.04,20,6,29,0.02
2013-1-10,43.6,33.8,23.6,33.7,27.8,20.5,89,79,59,30.58,30.20,9,1,13,0.03
2013-1-11,37.7,37.7,37.5,33.7,33.6,33.6,86,85,85,30.19,30.19,3,1,6,0.00
2013-1-12,59.4,51.6,37.7,51.9,46.5,33.6,88,83,76,30.19,29.83,11,3,15,0.00
2013-1-13,51.7,40.9,32.9,48.2,37.6,29.5,92,88,87,30.03,29.69,13,3,20,0.66
2013-1-14,32.9,26.5,17.5,29.5,19.9,14.6,88,76,64,30.44,30.03,14,4,24,0.00
2013-1-15,31.6,24.0,15.9,22.4,18.0,12.7,88,78,61,30.46,30.16,4,0,8,0.00
2013-1-16,39.0,30.7,21.8,28.1,21.6,18.5,88,70,46,30.16,29.82,14,4,23,0.00
2013-1-17,38.3,32.3,20.7,29.7,21.9,6.0,83,66,51,30.31,29.96,15,5,31,0.00
2013-1-18,36.2,27.2,17.4,25.0,16.6,8.5,78,65,51,30.46,29.99,15,4,26,0.00
2013-1-19,47.6,41.9,35.8,35.3,30.9,24.9,75,65,58,30.00,29.57,18,9,30,0.00
2013-1-20,45.1,24.3,18.1,35.6,11.8,6.4,75,59,49,30.19,29.55,23,7,37,0.00
2013-1-21,19.7,15.5,6.2,15.1,7.1,-2.9,84,69,56,30.17,29.97,14,4,22,0.00
2013-1-22,11.8,7.0,0.6,5.2,-2.5,-8.1,83,65,53,30.32,30.14,15,5,22,0.00
2013-1-23,18.8,12.2,4.9,12.6,6.1,0.4,85,76,66,30.33,30.11,11,3,15,0.00
2013-1-24,22.0,15.9,10.6,11.7,6.5,1.2,85,67,44,30.61,30.14,10,2,20,0.00
2013-1-25,22.0,18.9,15.9,17.2,13.6,7.4,87,80,69,30.53,30.04,8,1,13,0.00
2013-1-26,29.0,23.3,19.3,19.0,16.4,13.2,87,76,57,30.47,30.07,11,2,13,0.05
2013-1-27,30.6,24.8,16.2,27.3,19.1,12.5,88,79,61,30.50,30.13,10,2,16,0.01
2013-1-28,45.5,38.6,30.6,42.4,35.6,27.2,90,89,87,30.18,29.86,11,2,16,0.35
2013-1-29,57.3,47.4,37.0,54.1,44.4,34.1,90,89,88,30.02,29.47,13,3,21,0.44
2013-1-30,61.9,51.6,34.7,57.3,47.8,30.9,92,87,83,29.46,29.09,24,6,33,0.38
2013-1-31,34.7,24.2,17.4,30.9,17.3,11.6,87,75,63,29.89,29.21,24,9,39,0.00
2013-2-1,20.8,16.1,11.2,15.3,9.5,3.7,92,75,60,30.30,29.89,14,6,24,0.00
2013-2-2,24.2,18.4,13.6,20.2,13.7,7.4,87,82,75,30.25,29.96,11,3,18,0.00
2013-2-3,22.2,15.6,5.2,18.6,10.1,1.9,89,79,66,30.04,29.87,13,3,23,0.01
2013-2-4,24.7,20.7,18.2,20.3,16.2,9.2,87,82,67,30.06,29.89,6,0,9,0.00
2013-2-5,28.4,23.8,19.3,25.2,19.1,15.9,88,82,66,29.96,29.83,10,3,16,0.00
2013-2-6,33.7,25.2,13.2,25.5,17.7,10.0,88,74,52,30.32,29.95,9,2,14,0.03
2013-2-7,40.1,31.3,24.9,30.6,24.6,19.5,82,76,67,30.31,29.88,10,2,15,0.00
2013-2-8,31.4,28.5,24.4,28.0,24.0,18.2,89,83,76,30.35,29.76,16,6,25,0.01
2013-2-9,32.4,23.3,11.2,21.8,17.1,8.1,92,77,58,30.46,30.31,6,1,10,0.10
2013-2-10,39.8,30.8,19.0,35.2,25.4,15.9,89,81,64,30.32,29.71,9,1,15,0.20
2013-2-11,46.9,38.9,33.2,42.7,32.1,26.2,92,76,66,29.87,29.56,23,9,33,0.01
2013-2-12,34.2,32.2,29.6,27.3,25.0,22.3,81,74,69,30.05,29.87,12,5,20,0.00
2013-2-13,40.7,31.8,27.5,27.4,24.5,21.8,88,75,57,29.93,29.74,7,2,10,0.00
2013-2-14,40.9,35.2,27.5,36.1,30.5,24.4,89,83,72,29.84,29.68,15,4,26,0.02
2013-2-15,36.1,29.8,25.3,29.6,19.0,13.8,79,64,50,30.12,29.83,16,4,22,0.00
2013-2-16,27.9,22.3,17.0,21.6,16.2,12.6,85,77,63,30.10,29.98,9,2,16,0.00
2013-2-17,25.9,18.5,10.7,14.6,9.6,5.8,85,69,48,30.24,30.06,8,3,14,0.00
2013-2-18,45.4,32.1,15.5,35.4,23.3,10.1,84,70,57,30.24,29.62,13,4,20,0.01
2013-2-19,45.9,30.3,19.4,40.3,24.5,11.8,92,79,63,29.93,29.42,22,9,30,0.12
2013-2-20,23.8,21.2,17.6,16.6,12.6,9.7,78,69,60,30.25,29.93,16,7,30,0.00
2013-2-21,28.3,23.5,21.4,19.2,15.8,13.9,82,72,59,30.41,30.25,11,4,14,0.00
2013-2-22,35.1,30.6,23.9,32.2,27.2,19.2,89,87,82,30.29,29.90,10,2,20,0.02
2013-2-23,36.0,31.8,25.7,31.3,24.0,19.2,87,73,63,29.92,29.87,12,5,18,0.12
2013-2-24,37.4,30.0,24.1,27.7,23.5,20.0,89,77,63,30.15,29.90,9,3,16,0.03
2013-2-25,42.3,30.9,18.2,28.4,22.9,15.2,89,73,52,30.24,30.10,5,1,8,0.00
2013-2-26,36.6,32.7,29.0,31.2,27.5,22.3,89,81,68,30.14,29.50,15,6,24,0.50
2013-2-27,37.0,34.9,33.9,33.8,31.9,30.8,89,89,86,29.58,29.44,10,3,15,0.54
2013-2-28,39.1,34.7,31.1,34.2,30.5,26.2,89,85,78,29.95,29.55,13,4,20,0.34
2013-3-1,31.1,28.2,26.4,26.2,23.0,20.9,83,80,78,30.11,29.94,10,5,20,0.00
2013-3-2,30.4,26.6,25.0,23.7,20.8,17.0,83,78,70,30.08,30.04,10,4,14,0.01
2013-3-3,31.9,25.4,20.3,20.0,17.7,14.9,83,73,56,30.07,29.99,10,3,18,0.00
2013-3-4,38.7,27.0,15.4,20.8,17.2,12.0,92,68,43,30.16,30.06,6,1,8,0.01
2013-3-5,37.8,29.8,21.3,26.8,23.0,17.8,92,76,60,30.15,29.83,11,4,20,0.00
2013-3-6,43.8,35.5,28.1,31.9,28.3,23.3,85,75,61,30.21,29.84,11,3,20,0.00
2013-3-7,39.8,34.6,26.6,31.9,27.5,20.2,86,75,61,30.40,30.19,8,2,13,0.00
2013-3-8,47.9,34.1,21.2,30.2,24.8,17.7,87,70,48,30.50,30.39,7,1,9,0.00
2013-3-9,44.0,35.6,24.4,33.0,28.5,21.4,89,76,57,30.43,30.05,9,2,15,0.00
2013-3-10,64.8,51.1,34.0,48.3,39.1,30.3,87,65,47,30.05,29.78,12,2,20,0.00
2013-3-11,55.9,50.0,38.8,48.2,43.9,33.2,88,80,59,29.81,29.45,17,6,25,0.28
2013-3-12,38.8,35.7,30.7,33.5,30.3,26.3,86,81,71,29.92,29.67,13,6,21,0.02
2013-3-13,34.3,30.6,27.2,28.2,21.3,15.9,86,69,52,30.19,29.86,15,7,26,0.02
2013-3-14,43.4,32.6,23.3,23.4,19.0,14.6,77,58,41,30.27,30.08,11,3,18,0.00
2013-3-15,41.3,36.4,31.8,34.9,29.9,21.8,88,77,60,30.08,29.84,10,3,16,0.05
2013-3-16,36.0,30.9,28.5,32.8,26.6,21.6,89,84,73,30.05,29.76,9,4,14,0.05
2013-3-17,35.2,28.5,21.3,24.9,19.2,13.8,85,68,53,30.28,30.04,14,4,20,0.06
2013-3-18,36.7,31.8,23.5,33.8,27.6,16.8,89,84,75,30.20,29.55,11,4,20,0.04
2013-3-19,36.2,28.7,24.2,32.1,20.7,16.2,86,72,64,29.94,29.61,20,10,29,0.00
2013-3-20,31.0,26.9,17.5,19.0,15.6,10.0,79,62,54,29.95,29.89,13,7,21,0.00
2013-3-21,34.2,25.6,17.5,25.0,18.9,11.3,84,76,63,29.94,29.87,15,5,20,0.00
2013-3-22,42.2,32.4,27.2,24.8,21.4,18.4,76,64,47,30.03,29.93,10,4,18,0.01
2013-3-23,43.4,32.2,21.2,27.8,23.4,17.9,92,71,50,30.11,30.02,6,1,10,0.00
2013-3-24,39.7,32.0,25.0,29.3,24.4,20.6,92,74,54,30.06,29.63,15,5,22,0.00
2013-3-25,40.7,35.3,30.6,31.3,27.8,24.9,88,74,62,29.89,29.56,12,6,22,0.01
2013-3-26,47.4,38.6,34.7,33.3,30.1,27.5,81,72,53,30.10,29.89,9,4,14,0.01
2013-3-27,48.6,40.0,30.8,31.2,27.9,26.0,83,64,43,30.18,30.10,13,5,22,0.00
2013-3-28,55.4,42.8,32.2,31.1,27.0,24.0,77,55,33,30.26,30.18,10,3,15,0.00
2013-3-29,55.1,45.8,36.0,28.4,25.4,21.9,61,46,29,30.27,30.19,7,1,11,0.00
2013-3-30,57.8,43.3,27.1,32.7,25.4,17.5,83,53,23,30.21,29.93,13,2,20,0.00
2013-3-31,61.1,47.1,35.9,45.1,35.7,30.4,86,67,35,29.93,29.60,16,4,22,0.04
2013-4-1,45.4,35.0,28.7,35.8,19.2,13.1,76,53,35,30.10,29.66,17,7,23,0.00
2013-4-2,42.9,33.1,23.9,20.1,15.9,13.6,79,51,32,30.25,30.09,11,4,23,0.00
2013-4-3,45.2,34.0,22.7,22.4,15.7,11.4,80,49,27,30.43,30.25,10,2,22,0.00
2013-4-4,57.3,40.8,24.9,24.4,19.3,13.6,81,47,18,30.37,29.94,10,3,16,0.00
2013-4-5,51.9,43.8,33.5,32.6,24.7,17.7,77,49,27,30.21,29.92,11,3,20,0.00
2013-4-6,51.9,40.4,28.7,30.3,23.1,15.7,76,51,33,30.26,29.79,12,4,21,0.00
2013-4-7,60.1,53.7,42.5,46.8,38.3,26.8,72,57,36,30.01,29.61,20,7,36,0.00
2013-4-8,67.3,47.8,34.8,57.7,41.2,30.2,89,78,60,30.03,29.68,17,3,25,0.15
2013-4-9,56.5,48.0,42.7,47.5,43.2,39.1,87,83,71,30.09,29.87,8,2,13,0.02
2013-4-10,49.4,43.8,40.4,45.7,40.5,37.4,94,88,86,29.98,29.83,10,4,20,0.32
2013-4-11,41.1,39.1,37.5,39.4,36.0,34.3,94,89,88,29.98,29.60,16,6,25,1.15
2013-4-12,44.0,40.1,37.3,39.4,35.9,33.7,89,85,73,29.77,29.51,13,5,24,0.26
2013-4-13,44.2,40.6,38.5,37.9,32.5,27.7,86,73,58,29.99,29.77,14,6,25,0.00
2013-4-14,49.3,40.7,32.3,39.3,33.1,27.0,84,74,65,30.13,29.94,7,1,14,0.03
2013-4-15,70.0,66.1,40.3,55.3,52.8,34.9,81,63,55,29.97,29.86,12,4,25,0.01
2013-4-16,63.5,56.4,49.7,54.0,45.1,35.9,88,68,42,30.20,29.85,12,3,21,0.29
2013-4-17,59.2,49.2,41.5,44.9,37.7,32.1,88,65,44,30.32,30.04,10,5,18,0.62
2013-4-18,80.3,59.7,44.6,66.3,54.2,41.3,90,83,57,30.04,29.55,17,4,31,0.96
2013-4-19,59.8,47.1,38.8,56.2,40.6,29.8,88,78,64,29.74,29.29,23,8,37,0.29
2013-4-20,42.9,36.8,30.5,32.3,24.4,19.4,86,61,45,30.45,29.74,14,6,23,0.01
2013-4-21,50.3,38.0,24.7,32.2,25.5,21.3,88,63,39,30.64,30.45,10,2,15,0.00
2013-4-22,62.2,47.8,30.5,38.4,31.0,18.3,88,57,19,30.49,30.19,7,2,12,0.00
2013-4-23,71.5,55.3,37.6,54.2,42.6,33.3,88,65,39,30.19,29.78,14,3,24,0.22
2013-4-24,56.5,42.9,37.0,53.0,38.8,30.0,92,85,74,30.13,29.69,10,4,18,0.41
2013-4-25,53.4,43.7,34.6,42.1,32.8,28.7,86,67,42,30.34,30.11,17,6,26,0.10
2013-4-26,59.5,45.7,29.5,39.6,33.5,25.8,88,65,42,30.46,30.34,9,2,16,0.00
2013-4-27,68.9,54.2,35.3,42.9,36.9,30.9,88,57,25,30.37,30.09,8,2,13,0.00
2013-4-28,55.7,52.8,46.3,52.3,46.2,34.8,89,79,53,30.09,29.82,6,1,12,0.31
2013-4-29,70.2,60.2,54.3,57.0,53.4,51.1,92,79,60,29.92,29.81,7,1,12,0.01
2013-4-30,72.0,61.3,51.0,58.4,53.7,47.6,88,77,59,30.06,29.92,11,2,21,0.02
2013-5-1,80.8,74.3,54.4,61.1,56.0,50.0,85,55,42,30.21,30.05,9,3,16,0.00
2013-5-2,79.5,66.1,52.3,58.3,50.5,40.6,84,60,39,30.23,30.11,10,2,20,0.00
2013-5-3,78.1,66.8,54.4,57.7,46.1,35.3,71,49,23,30.11,30.03,9,2,18,0.00
2013-5-4,73.1,64.0,55.0,47.8,43.7,38.8,75,50,30,30.11,30.03,7,2,15,0.00
2013-5-5,75.2,63.5,50.9,46.2,41.9,35.6,76,48,28,30.09,29.99,9,2,14,0.00
2013-5-6,76.4,61.9,44.0,52.7,44.9,38.9,84,56,37,30.04,29.95,8,2,13,0.00
2013-5-7,78.4,64.6,49.1,56.7,49.8,42.4,78,61,40,30.03,29.95,12,2,18,0.00
2013-5-8,82.2,66.8,54.9,57.7,51.7,46.7,82,60,34,29.99,29.89,7,1,10,0.00
2013-5-9,83.0,67.7,50.9,58.5,51.0,45.0,88,60,31,29.94,29.86,7,1,12,0.00
2013-5-10,73.8,61.7,45.0,63.3,54.4,39.8,88,78,57,29.89,29.71,13,3,22,0.24
2013-5-11,63.6,49.1,40.6,49.1,42.0,33.8,85,77,54,29.89,29.71,14,3,23,0.02
2013-5-12,51.2,42.6,33.9,34.3,31.1,26.4,84,65,45,30.09,29.86,15,5,28,0.00
2013-5-13,57.6,43.9,28.4,33.2,27.7,24.0,87,57,30,30.17,30.08,9,2,16,0.00
2013-5-14,75.7,58.0,41.0,52.7,43.0,33.1,79,59,40,30.11,29.70,8,2,15,0.01
2013-5-15,84.6,71.5,54.0,60.9,51.5,45.2,88,54,31,29.77,29.56,11,4,24,0.01
2013-5-16,85.5,69.5,50.7,51.9,46.9,38.8,82,48,26,30.00,29.74,9,2,16,0.00
2013-5-17,75.7,62.4,49.0,49.3,43.7,38.8,76,52,33,30.13,30.00,8,2,14,0.00
2013-5-18,81.9,67.5,55.7,52.1,47.4,44.4,71,51,28,30.13,30.00,7,2,14,0.00
2013-5-19,87.2,71.2,54.5,67.3,57.8,47.0,80,64,43,30.02,29.86,7,1,13,0.00
2013-5-20,89.6,76.1,61.3,73.8,65.0,57.2,87,70,44,29.90,29.73,10,2,20,0.00
2013-5-21,87.1,78.3,70.6,69.7,64.1,61.0,83,64,43,29.78,29.67,13,3,20,0.00
2013-5-22,84.1,71.5,63.8,67.2,63.0,58.9,85,75,44,29.71,29.58,22,3,37,0.06
2013-5-23,66.1,55.6,43.5,59.8,51.2,38.8,88,85,78,30.12,29.66,10,4,21,0.26
2013-5-24,58.0,48.9,39.8,39.4,36.7,32.9,87,65,44,30.34,30.12,10,3,20,0.01
2013-5-25,68.4,52.8,35.2,42.2,37.6,31.7,88,60,33,30.40,30.26,10,1,12,0.00
2013-5-26,73.1,56.3,36.5,42.7,37.0,32.7,89,54,25,30.33,30.22,6,1,12,0.00
2013-5-27,64.1,52.1,41.8,50.3,42.7,31.3,88,72,32,30.26,30.00,6,1,12,0.36
2013-5-28,79.6,64.0,52.4,70.9,59.5,48.9,89,85,73,30.00,29.78,12,1,18,0.40
2013-5-29,86.4,76.6,67.6,67.6,65.3,62.2,85,69,48,29.95,29.75,15,4,23,0.06
2013-5-30,89.5,73.4,63.7,74.4,66.5,59.8,88,80,54,30.03,29.93,10,2,20,0.04
2013-5-31,84.3,73.4,66.6,72.2,66.8,62.9,88,81,63,29.97,29.83,15,3,26,0.11
2013-6-1,80.6,71.8,64.7,69.3,64.4,60.9,88,78,61,29.83,29.66,11,4,23,0.17
2013-6-2,73.3,66.9,55.6,64.5,58.3,46.0,87,74,60,29.95,29.62,12,4,21,0.01
2013-6-3,69.9,58.8,45.5,46.3,43.3,38.8,84,59,37,30.06,29.95,6,1,13,0.00
2013-6-4,74.4,60.7,47.4,51.7,44.9,32.2,87,59,35,30.18,30.05,5,1,12,0.00
2013-6-5,75.1,63.3,51.0,52.1,44.6,35.3,70,52,32,30.16,29.96,7,1,12,0.00
2013-6-6,71.0,62.2,56.7,56.6,49.6,42.6,71,63,56,29.97,29.82,8,3,14,0.00
2013-6-7,62.7,58.9,52.2,54.5,52.0,48.0,89,78,71,29.89,29.84,9,1,14,0.00
2013-6-8,73.5,64.2,57.3,58.1,53.8,51.1,81,70,50,30.05,29.88,5,0,8,0.00
2013-6-9,77.1,71.1,60.7,58.7,55.8,52.8,79,59,50,30.04,29.92,7,2,18,0.00
2013-6-10,70.3,66.1,61.4,66.6,62.1,55.3,89,87,66,29.93,29.70,6,0,12,1.01
2013-6-11,82.6,72.6,65.1,67.6,64.3,61.5,88,76,55,29.85,29.72,10,2,15,0.00
2013-6-12,76.7,70.4,62.3,68.6,64.6,58.3,88,82,74,29.90,29.61,4,0,8,0.37
2013-6-13,78.9,72.0,61.1,63.8,58.6,55.2,88,64,47,29.88,29.58,11,4,20,1.19
2013-6-14,78.4,69.8,60.7,59.3,55.9,51.6,80,63,42,30.03,29.88,9,2,16,0.00
2013-6-15,80.0,67.6,55.4,65.0,58.8,51.6,88,74,53,30.05,29.89,10,2,20,0.00
2013-6-16,83.0,72.5,65.0,67.8,62.1,53.9,88,72,42,29.90,29.73,11,3,23,0.24
2013-6-17,87.0,73.4,59.8,66.8,59.4,54.4,84,64,38,29.89,29.79,9,2,15,0.00
2013-6-18,74.3,65.9,56.4,61.0,53.5,41.9,88,66,43,30.05,29.84,10,3,15,0.17
2013-6-19,76.0,64.1,50.1,56.8,49.5,41.0,82,60,42,30.15,30.04,7,1,11,0.00
2013-6-20,81.7,67.9,51.6,61.0,54.8,47.9,88,66,43,30.19,30.11,8,1,12,0.00
2013-6-21,86.8,73.5,57.6,69.1,61.8,53.4,87,68,48,30.18,30.02,11,1,16,0.00
2013-6-22,86.0,74.8,69.5,75.6,67.3,61.5,87,78,67,30.06,29.94,8,1,13,0.21
2013-6-23,89.5,79.3,69.3,73.9,69.1,65.2,88,72,52,30.03,29.92,12,2,21,0.00
2013-6-24,87.4,78.6,68.2,73.7,69.2,63.7,86,73,59,30.03,29.87,11,2,18,0.00
2013-6-25,85.1,75.8,68.9,75.1,68.7,63.7,87,79,64,29.95,29.76,11,2,23,0.44
2013-6-26,84.3,75.2,67.4,73.7,68.5,63.7,88,80,67,29.86,29.70,11,1,16,0.19
2013-6-27,84.2,73.9,67.3,73.0,68.2,63.6,88,83,62,29.72,29.59,6,0,12,0.83
2013-6-28,77.1,68.4,65.4,68.6,63.9,61.1,89,86,70,29.60,29.47,11,1,22,0.52
2013-6-29,77.9,69.5,64.4,65.5,61.8,55.5,88,77,62,29.70,29.49,8,2,13,0.02
2013-6-30,80.7,70.8,62.3,63.8,58.5,47.9,84,66,47,29.91,29.69,12,3,20,0.00
2013-7-1,68.6,63.7,60.8,60.7,56.0,47.6,89,77,53,30.02,29.90,8,2,14,0.68
2013-7-2,75.5,67.2,60.0,64.4,60.3,55.8,88,79,66,30.05,29.98,7,1,12,0.00
2013-7-3,83.2,72.2,60.7,72.0,65.0,56.8,89,79,59,30.07,30.00,8,1,13,0.00
2013-7-4,81.6,75.4,71.0,70.5,67.9,65.7,87,78,60,30.09,30.03,7,1,15,0.00
2013-7-5,83.0,74.8,71.0,70.3,67.6,65.1,88,79,56,30.08,30.01,4,0,10,0.01
2013-7-6,84.4,75.1,69.3,73.3,68.9,65.5,88,82,65,30.08,29.95,6,0,13,0.22
2013-7-7,82.1,74.3,70.5,71.9,68.9,66.2,88,84,69,29.99,29.92,8,2,12,0.29
2013-7-8,83.2,73.4,68.2,75.6,68.7,64.2,88,86,76,30.00,29.93,12,1,18,1.48
2013-7-9,88.6,76.8,71.5,76.2,70.9,67.8,89,83,62,29.95,29.83,13,1,20,0.08
2013-7-10,86.7,76.8,68.1,79.2,70.3,59.8,89,81,60,29.89,29.71,12,2,20,0.60
2013-7-11,79.7,71.2,59.3,60.8,58.4,54.8,85,65,46,30.05,29.89,7,2,13,0.00
2013-7-12,82.2,70.9,57.4,65.2,59.7,53.6,88,69,48,30.12,30.02,8,1,12,0.00
2013-7-13,83.3,74.3,61.5,67.9,62.9,57.3,88,69,45,30.18,30.10,6,1,12,0.00
2013-7-14,88.7,78.6,66.9,74.2,69.0,62.4,88,73,55,30.22,30.16,4,0,9,0.00
2013-7-15,91.5,80.3,71.9,79.8,73.1,67.7,87,79,62,30.25,30.17,10,1,15,0.54
2013-7-16,88.6,81.7,76.6,80.1,76.2,72.8,88,84,72,30.26,30.18,4,0,12,0.08
2013-7-17,92.5,83.6,74.3,79.8,75.1,70.2,88,76,61,30.24,30.09,7,1,18,0.00
2013-7-18,90.5,82.8,73.7,81.0,75.0,69.5,88,78,61,30.11,29.91,11,1,21,0.14
2013-7-19,92.1,83.7,75.3,78.4,74.2,70.4,87,74,54,29.92,29.66,16,4,25,0.29
2013-7-20,85.7,77.6,70.8,74.0,67.0,60.4,88,72,45,29.88,29.67,15,1,24,0.14
2013-7-21,83.5,74.3,65.4,66.8,62.4,55.2,82,67,51,29.96,29.86,5,1,8,0.00
2013-7-22,80.9,74.6,70.2,69.7,66.4,64.0,85,76,57,29.92,29.72,4,0,8,0.00
2013-7-23,83.3,71.5,61.8,74.0,65.4,53.2,88,82,66,29.83,29.62,12,2,29,1.15
2013-7-24,73.0,65.4,57.4,56.3,52.0,48.8,76,63,47,30.02,29.83,10,2,18,0.00
2013-7-25,77.2,65.3,51.6,60.5,54.5,48.0,88,70,48,30.09,30.01,7,0,10,0.00
2013-7-26,78.8,68.7,56.2,63.6,58.9,52.7,88,72,54,30.08,29.87,9,0,14,0.00
2013-7-27,73.7,66.4,57.3,67.5,62.1,53.1,89,86,73,29.87,29.69,9,1,16,1.22
2013-7-28,66.5,59.4,51.0,57.6,52.5,47.6,89,79,64,29.96,29.81,14,3,21,0.00
2013-7-29,70.1,62.7,57.1,59.3,55.4,52.4,86,77,63,30.15,29.96,8,2,13,0.00
2013-7-30,77.9,66.3,52.5,63.7,57.6,49.0,89,75,52,30.21,30.10,6,0,10,0.00
2013-7-31,76.5,69.1,63.4,67.5,64.0,59.0,89,84,72,30.10,29.84,4,0,9,0.19
2013-8-1,79.6,69.3,63.9,66.6,61.7,56.4,89,78,48,29.89,29.83,11,2,15,0.08
2013-8-2,74.0,66.1,55.4,65.3,59.5,51.6,88,80,63,29.91,29.81,14,2,24,0.00
2013-8-3,78.4,70.7,59.1,63.3,58.7,53.7,88,68,43,30.01,29.85,7,1,15,0.00
2013-8-4,74.9,66.4,56.0,58.6,54.9,52.0,89,68,48,30.11,30.01,8,2,14,0.00
2013-8-5,73.6,65.9,57.8,61.1,56.0,50.6,84,71,56,30.09,29.94,6,0,8,0.00
2013-8-6,78.3,70.5,65.0,68.2,64.0,59.9,87,80,67,29.94,29.86,5,0,12,0.00
2013-8-7,83.5,72.8,66.2,73.5,67.3,62.5,88,83,70,29.88,29.78,8,1,16,0.14
2013-8-8,77.4,71.8,66.6,70.1,64.8,58.2,88,79,65,29.97,29.84,7,2,12,0.01
2013-8-9,80.4,71.6,61.3,63.0,58.7,54.4,82,65,48,29.97,29.90,8,1,10,0.00
2013-8-10,78.5,70.9,63.9,64.0,60.8,57.6,86,71,53,30.09,29.97,6,0,10,0.00
2013-8-11,79.3,69.4,56.6,66.4,59.2,53.0,88,71,53,30.10,29.99,7,1,12,0.00
2013-8-12,71.7,67.9,65.0,68.0,63.0,59.6,88,85,69,30.02,29.80,7,0,12,0.99
2013-8-13,68.9,64.2,56.9,63.4,54.3,46.8,89,72,50,30.01,29.78,10,2,16,0.05
2013-8-14,71.8,60.8,51.0,54.8,50.4,46.3,87,70,50,30.13,30.02,7,1,12,0.00
2013-8-15,73.7,62.5,49.2,57.6,52.3,45.8,88,71,46,30.15,30.07,7,1,12,0.00
2013-8-16,79.3,66.3,53.2,60.7,55.2,49.7,88,70,45,30.18,30.09,3,0,8,0.00
2013-8-17,79.7,67.6,53.7,62.3,56.1,50.1,88,69,40,30.24,30.15,7,0,12,0.00
2013-8-18,81.5,69.6,58.0,66.8,59.1,54.2,88,71,45,30.19,30.08,6,0,10,0.00
2013-8-19,82.2,70.9,58.6,66.0,59.9,54.9,88,71,47,30.09,30.00,9,1,14,0.00
2013-8-20,84.5,73.6,60.9,69.9,64.5,57.3,88,75,55,30.11,30.02,9,1,15,0.00
2013-8-21,85.3,75.6,64.6,72.0,67.1,60.8,88,76,60,30.10,29.95,9,1,16,0.00
2013-8-22,82.7,76.6,71.1,71.1,68.5,66.8,87,77,62,30.00,29.90,8,2,12,0.00
2013-8-23,82.5,73.5,61.4,67.7,57.0,49.9,85,59,33,30.17,29.98,7,1,10,0.00
2013-8-24,81.5,70.2,57.2,65.8,58.9,53.6,88,69,46,30.28,30.16,7,0,12,0.00
2013-8-25,85.6,72.9,57.0,68.3,62.2,53.4,88,71,50,30.27,30.11,10,1,16,0.00
2013-8-26,87.5,77.9,66.6,74.4,68.5,61.6,85,74,61,30.13,29.92,9,3,18,0.00
2013-8-27,82.7,77.2,72.0,76.3,72.4,68.2,88,85,80,29.95,29.79,8,1,16,1.29
2013-8-28,83.6,78.1,72.8,74.7,71.8,67.7,88,81,67,29.96,29.74,15,2,23,0.16
2013-8-29,85.9,75.8,66.5,74.5,69.0,62.8,88,80,63,30.03,29.95,5,0,12,0.00
2013-8-30,86.2,76.5,65.2,75.5,68.8,61.6,88,78,61,29.97,29.69,10,2,20,0.54
2013-8-31,80.7,74.5,70.9,72.1,68.4,65.5,88,82,67,29.80,29.69,6,1,12,1.25
2013-9-1,81.3,73.6,68.7,73.3,68.2,64.4,88,83,75,29.82,29.68,5,0,9,0.00
2013-9-2,77.8,71.0,63.0,69.4,62.9,52.9,88,76,59,29.87,29.68,11,2,20,0.04
2013-9-3,74.4,65.1,58.9,59.0,55.2,52.4,83,71,52,29.99,29.87,9,2,14,0.00
2013-9-4,80.5,68.7,53.8,65.1,59.1,50.5,89,73,54,30.05,29.96,11,3,20,0.00
2013-9-5,72.0,65.8,54.9,63.8,53.4,46.7,87,66,44,30.24,30.03,7,2,13,0.00
2013-9-6,74.6,61.4,46.4,56.9,47.7,35.3,89,65,27,30.26,30.05,8,0,12,0.00
2013-9-7,82.4,68.7,56.9,70.5,61.4,51.4,87,78,63,30.05,29.85,8,1,12,0.01
2013-9-8,75.5,70.0,58.6,66.9,59.4,50.8,87,70,49,30.05,29.88,10,2,15,0.00
2013-9-9,74.1,64.6,53.4,69.1,60.3,49.5,89,86,78,30.04,29.87,2,0,6,0.08
2013-9-10,92.9,81.5,67.7,77.9,71.3,64.0,89,73,47,29.97,29.85,12,3,16,0.00
2013-9-11,90.6,79.1,70.3,76.9,70.2,66.6,88,75,57,29.99,29.85,10,2,16,0.16
2013-9-12,79.0,70.0,58.6,66.7,61.4,49.9,88,76,47,29.92,29.79,14,2,24,0.00
2013-9-13,62.2,56.0,44.1,50.8,45.7,39.7,85,69,53,30.11,29.92,11,3,21,0.00
2013-9-14,68.2,54.3,38.8,50.0,42.7,35.8,89,68,37,30.18,30.07,7,1,10,0.00
2013-9-15,65.4,56.0,46.6,55.4,50.3,43.2,92,82,65,30.10,30.03,6,0,13,0.01
2013-9-16,64.1,57.1,48.7,54.7,49.2,42.1,89,76,52,30.36,30.10,9,2,18,0.00
2013-9-17,68.8,54.2,39.6,53.9,44.0,36.3,89,71,42,30.39,30.20,5,0,9,0.00
2013-9-18,74.4,60.3,45.8,60.3,52.0,42.4,92,76,50,30.21,30.02,6,0,12,0.00
2013-9-19,80.4,68.3,57.4,70.3,62.8,53.9,88,83,68,30.02,29.89,7,1,13,0.00
2013-9-20,82.5,72.6,68.4,74.5,67.6,64.7,88,84,69,29.90,29.69,13,2,15,0.36
2013-9-21,69.7,64.1,57.0,64.7,56.1,45.7,89,76,52,29.84,29.63,10,2,18,0.19
2013-9-22,61.7,56.1,51.7,46.6,43.7,39.6,74,63,52,30.06,29.84,8,2,15,0.00
2013-9-23,62.5,53.1,42.7,48.0,43.5,39.0,88,71,51,30.17,30.06,6,1,12,0.00
2013-9-24,68.2,54.8,42.1,54.3,46.7,39.1,89,76,52,30.14,29.98,8,1,12,0.00
2013-9-25,71.7,57.6,45.9,57.8,49.6,42.8,89,76,49,30.00,29.92,8,1,13,0.00
2013-9-26,75.8,60.4,45.8,56.7,48.9,42.4,89,69,40,30.12,29.97,6,0,12,0.00
2013-9-27,75.6,61.3,47.3,61.5,52.9,43.9,92,76,48,30.22,30.12,7,1,13,0.00
2013-9-28,76.9,63.5,49.6,63.8,54.2,46.2,92,74,48,30.17,29.99,6,1,12,0.00
2013-9-29,64.5,61.8,59.1,60.9,57.5,54.4,88,86,82,30.00,29.92,6,0,9,0.14
2013-9-30,71.7,63.0,57.1,61.9,56.2,53.5,89,80,59,29.99,29.89,8,1,14,0.00
2013-10-1,71.1,60.4,50.6,64.5,56.2,47.3,89,86,78,30.00,29.91,11,2,19,0.00
2013-10-2,78.6,67.2,56.1,64.3,54.9,48.5,88,68,36,30.05,29.92,6,1,8,0.00
2013-10-3,77.6,66.1,54.6,69.7,60.7,50.5,88,83,74,30.04,29.90,9,1,14,0.00
2013-10-4,80.1,71.6,65.7,69.7,65.8,62.0,88,82,66,29.99,29.91,7,1,10,0.00
2013-10-5,74.4,69.4,65.3,69.1,65.0,61.7,89,86,79,30.01,29.83,6,0,12,0.53
2013-10-6,71.6,66.8,56.9,66.6,62.9,53.4,88,87,83,29.83,29.59,9,1,14,0.30
2013-10-7,59.1,53.1,45.5,53.8,47.8,42.2,92,82,67,30.10,29.65,12,4,21,0.03
2013-10-8,66.8,52.6,39.8,53.3,43.4,36.8,89,74,43,30.28,30.10,7,0,10,0.00
2013-10-9,70.3,55.1,41.6,57.0,45.7,38.6,92,73,44,30.31,30.19,5,0,12,0.00
2013-10-10,70.8,55.9,42.2,56.6,45.7,39.2,89,72,40,30.22,30.11,5,0,9,0.00
2013-10-11,71.6,56.2,41.6,54.3,46.7,38.3,89,73,45,30.14,30.05,5,0,8,0.00
2013-10-12,75.7,61.5,49.4,64.7,54.2,46.0,88,78,43,30.08,30.01,5,0,10,0.00
2013-10-13,68.8,60.8,49.2,57.2,47.9,40.0,88,65,38,30.31,30.06,6,1,12,0.00
2013-10-14,63.6,52.6,41.9,47.6,43.3,38.6,88,73,49,30.39,30.25,7,1,12,0.00
2013-10-15,63.9,54.0,41.1,59.0,49.8,37.8,92,86,78,30.26,29.82,7,1,12,0.05
2013-10-16,65.3,58.9,52.0,59.5,51.8,46.3,88,78,58,29.89,29.78,14,4,22,0.01
2013-10-17,53.1,50.8,46.5,49.2,46.8,42.9,88,86,81,29.88,29.74,9,2,15,0.13
2013-10-18,63.3,52.3,42.3,48.9,44.2,39.0,88,75,50,29.91,29.82,9,2,20,0.00
2013-10-19,47.4,44.0,39.2,44.0,40.5,35.9,92,87,84,29.89,29.73,9,1,16,0.17
2013-10-20,59.1,49.2,39.1,46.4,41.5,35.9,89,76,55,29.91,29.83,9,2,18,0.00
2013-10-21,55.8,51.3,40.3,49.0,44.7,35.8,87,78,66,29.85,29.78,13,4,23,0.03
2013-10-22,50.1,42.5,33.6,37.5,33.3,29.3,86,71,53,29.92,29.82,10,2,16,0.00
2013-10-23,49.5,40.4,30.8,39.4,32.0,27.7,88,73,47,29.92,29.80,6,2,16,0.01
2013-10-24,48.3,39.0,31.9,38.0,31.7,28.8,88,76,50,30.17,29.91,9,2,16,0.00
2013-10-25,49.9,39.3,30.5,38.8,31.7,27.4,88,75,51,30.32,30.12,10,2,15,0.00
2013-10-26,50.3,43.1,36.4,39.3,33.3,29.5,92,69,56,30.12,29.77,13,6,24,0.05
2013-10-27,52.6,41.3,31.2,38.9,33.8,28.1,89,76,52,30.07,29.97,9,1,13,0.01
2013-10-28,52.0,41.4,30.9,42.1,34.7,27.5,88,77,67,30.38,30.02,8,2,14,0.00
2013-10-29,51.5,43.5,34.7,39.6,35.0,30.6,86,72,57,30.43,30.24,5,1,9,0.00
2013-10-30,62.7,47.8,32.3,50.2,40.0,29.1,88,76,50,30.24,29.94,5,0,8,0.09
2013-10-31,62.7,60.2,53.7,59.1,56.6,49.9,88,88,87,29.95,29.13,12,3,23,1.36
2013-11-1,61.5,50.9,46.7,57.9,45.4,41.3,89,82,74,29.65,29.09,20,7,34,0.03
2013-11-2,49.2,45.2,36.7,43.5,41.4,32.5,92,86,78,30.08,29.63,8,2,13,0.20
2013-11-3,46.0,38.5,31.9,38.7,32.8,28.8,89,81,63,30.45,30.08,5,0,10,0.00
2013-11-4,49.7,41.0,30.7,38.0,33.0,27.8,89,74,49,30.48,30.31,8,1,15,0.00
2013-11-5,55.7,48.7,37.9,48.3,43.4,34.4,88,82,71,30.35,30.16,6,0,12,0.00
2013-11-6,57.8,53.3,45.0,52.6,47.6,39.8,88,81,68,30.16,29.78,16,4,27,0.08
2013-11-7,46.7,41.3,35.6,40.2,32.6,26.5,89,73,51,30.12,29.95,11,4,20,0.05
2013-11-8,45.3,37.3,32.1,34.8,29.9,27.2,89,76,50,30.28,30.10,8,2,13,0.00
2013-11-9,57.1,48.9,36.8,43.1,37.7,31.3,83,66,53,30.18,29.78,16,6,26,0.00
2013-11-10,49.6,43.5,33.3,42.0,32.7,28.4,86,66,51,30.25,29.87,16,4,26,0.01
2013-11-11,43.8,37.6,29.2,39.4,32.3,21.1,89,81,71,30.30,30.01,13,4,22,0.11
2013-11-12,35.7,30.1,24.9,24.7,20.2,17.5,80,67,52,30.54,30.30,9,4,22,0.03
2013-11-13,40.4,30.8,20.5,26.3,20.8,16.4,86,67,44,30.55,30.17,17,6,26,0.00
2013-11-14,51.0,40.1,30.4,27.8,24.3,20.9,70,54,37,30.18,29.99,14,7,23,0.00
2013-11-15,51.9,44.4,38.7,33.0,29.2,25.4,72,55,45,30.07,29.99,10,4,14,0.00
2013-11-16,57.2,46.6,32.5,52.1,41.6,28.8,88,83,70,30.10,29.80,6,2,15,0.00
2013-11-17,64.0,57.1,48.1,59.0,52.1,38.4,88,83,68,29.80,29.22,28,6,43,1.02
2013-11-18,48.1,39.9,36.2,39.1,30.1,24.8,72,68,62,30.01,29.55,16,10,31,0.00
2013-11-19,41.2,37.3,33.0,25.3,23.9,22.4,66,58,50,30.34,30.28,9,3,13,0.00
2013-11-20,46.7,41.8,37.2,32.2,28.1,24.6,73,59,42,30.38,30.24,9,2,20,0.00
2013-11-21,47.7,44.4,40.2,43.1,38.4,31.1,89,80,66,30.28,30.16,8,1,12,0.30
2013-11-22,47.2,41.2,28.7,44.1,37.0,24.4,92,85,73,30.35,30.11,10,2,20,0.06
2013-11-23,31.6,25.6,18.6,24.7,17.3,9.2,89,72,49,30.52,30.26,14,4,25,0.00
2013-11-24,26.3,20.4,15.8,15.9,11.3,9.2,84,68,50,30.60,30.44,9,3,15,0.00
2013-11-25,32.2,26.5,20.0,26.0,17.8,12.6,85,70,54,30.44,30.10,17,7,23,0.00
2013-11-26,36.1,33.0,30.5,29.0,27.5,25.6,84,80,74,30.12,29.91,10,4,15,0.00
2013-11-27,31.6,26.0,20.9,26.7,15.9,11.0,83,66,53,30.19,29.90,11,5,21,0.00
2013-11-28,29.5,23.9,17.7,22.9,16.9,12.0,89,75,61,30.43,30.19,9,2,15,0.01
2013-11-29,34.7,25.1,14.8,25.2,18.7,11.6,89,77,53,30.67,30.43,5,0,8,0.00
2013-11-30,45.5,35.0,26.3,29.6,26.6,22.1,85,72,53,30.57,30.09,7,2,12,0.00
2013-12-1,47.0,36.3,27.9,36.1,30.5,24.2,92,80,65,30.10,29.96,7,1,12,0.00
2013-12-2,40.4,34.3,25.7,33.1,27.0,21.6,92,75,52,29.99,29.88,5,0,8,0.00
2013-12-3,39.2,34.9,24.8,36.2,31.5,21.2,89,87,83,29.91,29.84,4,0,8,0.13
2013-12-4,56.5,47.1,37.7,52.0,43.3,34.8,89,87,83,29.89,29.62,9,2,15,0.00
2013-12-5,60.1,45.3,32.3,55.2,36.9,22.8,86,73,60,30.13,29.59,18,6,27,0.00
2013-12-6,32.3,28.5,22.6,23.4,19.2,14.7,72,68,63,30.40,30.10,10,2,13,0.00
2013-12-7,26.8,21.7,15.6,15.6,11.3,9.8,85,64,50,30.62,30.39,11,2,15,0.00
2013-12-8,30.4,21.8,13.4,27.4,16.5,8.9,92,80,67,30.61,30.00,8,2,12,0.00
2013-12-9,31.1,27.8,21.1,28.2,22.6,14.2,89,81,69,30.11,29.88,16,7,26,0.00
2013-12-10,23.4,19.6,13.8,15.2,10.6,3.8,78,68,49,30.25,29.97,15,6,30,0.00
2013-12-11,24.7,19.1,9.5,20.1,12.7,2.7,85,76,65,30.47,30.19,11,5,20,0.00
2013-12-12,19.5,14.3,5.9,12.8,6.1,0.5,84,70,49,30.47,30.20,16,5,23,0.00
2013-12-13,30.7,24.7,19.1,22.3,18.1,12.5,86,76,69,30.30,30.16,10,3,13,0.00
2013-12-14,22.7,20.8,19.3,19.9,17.4,13.8,89,86,69,30.28,29.81,11,5,16,0.00
2013-12-15,25.8,21.2,16.3,23.0,18.0,11.0,89,87,79,30.04,29.80,15,5,22,0.00
2013-12-16,22.2,15.4,6.1,17.2,11.6,3.1,89,85,76,30.20,30.02,8,1,12,0.06
2013-12-17,27.5,22.1,15.5,23.7,19.0,12.6,89,88,84,30.02,29.90,17,3,20,0.00
2013-12-18,31.4,25.9,22.2,24.8,20.9,16.5,89,82,68,30.12,29.91,12,4,18,0.01
2013-12-19,40.8,34.5,27.0,34.0,28.4,19.0,88,78,68,29.99,29.87,9,2,12,0.25
2013-12-20,42.7,36.9,34.7,39.7,33.9,31.8,89,89,88,29.91,29.72,4,0,6,0.47
2013-12-21,35.9,35.1,33.7,33.0,32.3,30.8,96,89,89,29.85,29.65,9,2,16,0.77
2013-12-22,39.3,36.1,33.8,36.7,33.1,31.2,96,89,86,29.95,29.53,14,4,21,0.26
2013-12-23,35.7,30.7,23.5,32.8,24.6,16.7,89,78,65,30.30,29.95,12,4,20,0.00
2013-12-24,23.9,17.3,10.8,17.3,9.6,6.4,84,72,56,30.56,30.29,15,4,21,0.00
2013-12-25,26.2,20.7,10.5,22.9,16.6,7.0,87,84,76,30.52,30.13,12,2,21,0.00
2013-12-26,31.9,27.1,25.5,25.8,22.1,18.2,89,81,68,30.29,30.04,12,4,23,0.02
2013-12-27,40.4,34.3,26.5,32.9,29.1,21.5,86,81,73,30.32,30.07,15,3,22,0.05
2013-12-28,47.5,40.8,33.5,37.8,33.8,29.8,92,76,67,30.12,29.89,15,6,22,0.00
2013-12-29,44.9,36.5,24.2,33.8,29.8,18.0,88,77,64,29.99,29.67,11,4,18,0.00
2013-12-30,23.9,20.6,16.6,18.3,11.4,5.8,83,68,58,30.28,29.99,10,2,14,0.00
2013-12-31,21.9,18.7,16.6,18.0,12.5,9.4,94,77,65,30.34,30.06,14,6,21,0.00
2014-1-1,17.6,15.1,12.9,14.2,11.4,8.9,88,85,81,30.41,30.23,8,3,12,0.00
2014-1-2,16.4,13.4,5.1,13.5,10.5,2.1,89,88,87,30.28,30.08,14,7,25,0.00